Avondale Estates, Georgia
Current Conditions -  °F | °C
As of 6:53 PM on Sunday 25 Jan 2015 (Local Time) from KPDK Reporting Station
Overcast Overcast  
Wind Chill: 54°   Ceiling: 10000
Heat Index: 54°   Visibility: 10mi
Dew Point: 33°   Wind: 6mph
Humidity: 45%   Direction: 170°S
Pressure: 29.75"   Gusts: NA
Location:  33.77°N, 84.27°W
Report Text: KPDK 252353Z 17005KT 10SM BKN100 OVC110 12/01 A2975 RMK AO2 SLP085 T01220006 10144 20117 53004 $
Loading
Personal Weather Stations






























Interactive Weather Map New forecast layout! Learn more

10-Day Weather Forecast

Advertisements
Track Severe Weather on mobile